Time;durP1;ratioP1;P1;durP2;ratioP2;P2;SDS_P1;SDS_P2;PMS_P1;PMS_P2;Temp;Humidity;BMP_temperature;BMP_pressure;BME280_temperature;BME280_humidity;BME280_pressure;Samples;Min_cycle;Max_cycle;Signal;HPM_P1;HPM_P2
2023/03/28 00:01:22;;;;;;;24.80;10.40;;;;;;;-2.99;75.42;98287.62;104509;1261;96631;-69
2023/03/28 00:03:51;;;;;;;24.00;9.60;;;;;;;-3.01;75.56;98287.10;104525;1274;96582;-67
2023/03/28 00:06:20;;;;;;;24.10;9.10;;;;;;;-3.03;75.73;98285.13;104605;1264;97945;-67
2023/03/28 00:08:48;;;;;;;20.80;9.20;;;;;;;-3.04;75.74;98286.52;104265;1265;109502;-68
2023/03/28 00:11:20;;;;;;;23.70;9.10;;;;;;;-3.06;75.83;98286.71;104371;1264;97867;-67
2023/03/28 00:13:56;;;;;;;21.40;10.60;;;;;;;-3.08;76.13;98286.52;104402;1265;97910;-68
2023/03/28 00:16:24;;;;;;;21.70;9.70;;;;;;;-3.09;76.38;98289.44;104328;1269;110035;-68
2023/03/28 00:18:52;;;;;;;23.20;9.90;;;;;;;-3.08;76.64;98286.94;104603;1265;98884;-69
2023/03/28 00:21:29;;;;;;;21.00;9.30;;;;;;;-3.07;77.12;98289.39;104396;1277;96566;-70
2023/03/28 00:24:00;;;;;;;23.80;10.80;;;;;;;-3.02;77.37;98288.54;104542;1267;96730;-68
2023/03/28 00:26:34;;;;;;;26.10;12.70;;;;;;;-2.94;77.64;98291.44;104584;1266;98326;-69
2023/03/28 00:29:04;;;;;;;27.60;12.60;;;;;;;-2.83;77.85;98290.76;104257;1280;109390;-68
2023/03/28 00:31:33;;;;;;;26.00;12.40;;;;;;;-2.73;78.28;98291.10;104382;1262;96616;-68
2023/03/28 00:34:01;;;;;;;23.30;11.10;;;;;;;-2.59;78.62;98290.79;104615;1264;109002;-69
2023/03/28 00:36:31;;;;;;;19.40;9.40;;;;;;;-2.47;78.53;98292.05;104502;1262;96678;-69
2023/03/28 00:39:00;;;;;;;18.40;8.60;;;;;;;-2.37;78.78;98289.13;104318;1281;96557;-67
2023/03/28 00:41:32;;;;;;;17.90;7.90;;;;;;;-2.30;79.08;98288.69;104513;1264;110855;-66
2023/03/28 00:44:01;;;;;;;18.30;7.60;;;;;;;-2.22;79.22;98290.88;104636;1268;98291;-69
2023/03/28 00:46:33;;;;;;;15.70;7.50;;;;;;;-2.17;79.11;98291.57;104528;1269;106551;-68
2023/03/28 00:49:06;;;;;;;21.10;7.30;;;;;;;-2.13;79.19;98290.77;104568;1266;96566;-66
2023/03/28 00:51:38;;;;;;;18.80;7.60;;;;;;;-2.10;79.23;98288.73;104197;1270;97733;-67
2023/03/28 00:54:10;;;;;;;19.60;8.40;;;;;;;-2.06;79.23;98289.45;104484;1262;110840;-67
2023/03/28 00:56:41;;;;;;;18.50;7.70;;;;;;;-2.03;79.36;98288.39;104275;1262;97997;-68
2023/03/28 00:59:13;;;;;;;12.80;6.90;;;;;;;-1.98;79.71;98291.63;104565;1268;108553;-67
2023/03/28 01:01:40;;;;;;;11.80;6.70;;;;;;;-1.93;79.77;98288.23;104595;1262;96554;-68
2023/03/28 01:04:08;;;;;;;14.30;6.90;;;;;;;-1.87;80.04;98287.77;104537;1272;96558;-68
2023/03/28 01:06:47;;;;;;;14.50;7.30;;;;;;;-1.81;80.00;98290.33;104634;1262;111050;-67
2023/03/28 01:09:17;;;;;;;13.10;7.10;;;;;;;-1.76;79.77;98290.09;104588;1278;97985;-67
2023/03/28 01:11:50;;;;;;;14.80;6.90;;;;;;;-1.72;79.75;98289.10;104478;1268;107612;-67
2023/03/28 01:14:21;;;;;;;16.00;7.30;;;;;;;-1.68;79.80;98284.80;104232;1269;96622;-68
2023/03/28 01:16:50;;;;;;;13.70;6.60;;;;;;;-1.62;79.75;98288.51;104508;1266;96814;-68
2023/03/28 01:19:50;;;;;;;15.70;7.50;;;;;;;-1.55;79.69;98289.95;104273;1266;109972;-68
2023/03/28 01:22:17;;;;;;;13.00;6.20;;;;;;;-1.48;79.41;98288.30;104364;1279;98953;-68
2023/03/28 01:25:03;;;;;;;17.00;6.70;;;;;;;-1.44;79.33;98282.14;104473;1264;96665;-68
2023/03/28 01:27:53;;;;;;;13.80;6.90;;;;;;;-1.41;79.49;98285.57;104570;1265;97871;-68
2023/03/28 01:30:48;;;;;;;11.30;5.70;;;;;;;-1.38;79.98;98287.60;104290;1268;96624;-68
2023/03/28 01:33:40;;;;;;;11.00;5.00;;;;;;;-1.36;79.53;98289.05;104406;1265;110809;-67
2023/03/28 01:36:37;;;;;;;7.10;4.30;;;;;;;-1.31;79.51;98282.11;104210;1279;99023;-67
2023/03/28 01:39:29;;;;;;;13.00;5.70;;;;;;;-1.31;79.69;98278.69;103909;1275;108164;-68
2023/03/28 01:42:05;;;;;;;7.90;4.70;;;;;;;-1.32;80.06;98275.01;103920;1282;96837;-69
2023/03/28 01:44:52;;;;;;;11.80;5.70;;;;;;;-1.34;80.50;98272.46;104189;1271;96794;-68
2023/03/28 01:47:36;;;;;;;12.20;5.30;;;;;;;-1.34;80.53;98271.48;104078;1271;109847;-68
2023/03/28 01:50:27;;;;;;;12.30;5.60;;;;;;;-1.36;80.65;98277.48;103990;1271;99559;-68
2023/03/28 01:53:21;;;;;;;10.20;5.30;;;;;;;-1.36;80.49;98271.94;103604;1279;108768;-69
2023/03/28 01:56:10;;;;;;;10.40;5.00;;;;;;;-1.38;80.97;98273.30;103584;1279;96871;-70
2023/03/28 01:58:47;;;;;;;12.90;5.80;;;;;;;-1.41;81.14;98281.43;103691;1280;96670;-70
2023/03/28 02:01:36;;;;;;;10.20;5.60;;;;;;;-1.44;81.08;98279.44;103940;1287;110868;-70
2023/03/28 02:04:19;;;;;;;12.10;6.30;;;;;;;-1.46;81.12;98279.45;103911;1277;98974;-70
2023/03/28 02:06:58;;;;;;;12.40;6.50;;;;;;;-1.47;81.17;98277.45;103751;1272;108717;-70
2023/03/28 02:09:37;;;;;;;12.60;6.50;;;;;;;-1.46;81.76;98275.11;103749;1277;97177;-70
2023/03/28 02:12:18;;;;;;;13.80;7.00;;;;;;;-1.43;81.76;98273.88;103860;1275;96721;-69
2023/03/28 02:14:47;;;;;;;12.10;6.40;;;;;;;-1.39;81.56;98273.94;103747;1285;110958;-69
2023/03/28 02:17:15;;;;;;;12.10;6.60;;;;;;;-1.34;81.48;98274.34;104115;1271;99286;-70
2023/03/28 02:19:49;;;;;;;13.40;6.70;;;;;;;-1.33;81.30;98275.33;103881;1274;107283;-69
2023/03/28 02:22:32;;;;;;;10.70;6.10;;;;;;;-1.32;80.89;98274.47;104222;1270;97527;-69
2023/03/28 02:24:59;;;;;;;11.10;6.20;;;;;;;-1.34;80.75;98270.90;104267;1265;96655;-69
2023/03/28 02:27:27;;;;;;;13.30;6.30;;;;;;;-1.36;80.83;98270.06;104271;1269;97072;-68
2023/03/28 02:29:54;;;;;;;15.90;8.10;;;;;;;-1.40;80.84;98267.96;104325;1268;99022;-69
2023/03/28 02:32:22;;;;;;;13.70;8.60;;;;;;;-1.44;80.76;98266.11;104849;1264;96628;-69
2023/03/28 02:34:54;;;;;;;17.40;9.60;;;;;;;-1.46;80.96;98266.67;104832;1262;96638;-69
2023/03/28 02:37:40;;;;;;;16.40;9.70;;;;;;;-1.52;81.30;98266.30;104864;1262;96643;-69
2023/03/28 02:40:16;;;;;;;16.50;9.90;;;;;;;-1.57;81.02;98265.90;104418;1261;446293;-68
2023/03/28 02:43:14;;;;;;;14.40;8.80;;;;;;;-1.64;80.92;98261.72;104603;1272;99236;-69
2023/03/28 02:46:10;;;;;;;16.10;9.10;;;;;;;-1.70;80.87;98264.41;104354;1263;108198;-68
2023/03/28 02:49:14;;;;;;;19.70;10.80;;;;;;;-1.76;80.84;98261.67;104575;1259;97823;-68
2023/03/28 02:52:35;;;;;;;19.10;11.10;;;;;;;-1.84;80.76;98263.95;104586;1262;96505;-68
2023/03/28 02:55:38;;;;;;;26.70;13.40;;;;;;;-1.93;80.80;98263.48;104317;1268;111061;-67
2023/03/28 02:58:22;;;;;;;18.30;10.30;;;;;;;-2.00;80.91;98262.58;104352;1276;99379;-68
2023/03/28 03:01:13;;;;;;;16.20;8.60;;;;;;;-2.05;81.36;98264.13;104193;1276;108657;-69
2023/03/28 03:03:49;;;;;;;18.30;9.40;;;;;;;-2.04;81.65;98259.73;104313;1268;96646;-70
2023/03/28 03:06:16;;;;;;;16.40;8.10;;;;;;;-2.01;81.64;98258.35;104320;1262;96824;-70
2023/03/28 03:08:43;;;;;;;13.40;7.10;;;;;;;-1.97;81.88;98259.48;104587;1279;96646;-70
2023/03/28 03:11:11;;;;;;;10.90;6.70;;;;;;;-1.95;81.78;98257.96;104409;1274;96632;-70
2023/03/28 03:13:38;;;;;;;11.70;6.40;;;;;;;-1.92;81.64;98256.69;104316;1276;96743;-67
2023/03/28 03:16:07;;;;;;;12.90;6.10;;;;;;;-1.87;81.61;98255.73;104457;1268;97192;-70
2023/03/28 03:18:35;;;;;;;13.10;6.40;;;;;;;-1.85;81.43;98259.74;104362;1268;97833;-69
2023/03/28 03:21:03;;;;;;;11.10;5.80;;;;;;;-1.82;81.41;98261.14;104394;1268;110019;-69
2023/03/28 03:23:30;;;;;;;13.00;6.20;;;;;;;-1.81;81.31;98259.16;104533;1268;99449;-68
2023/03/28 03:25:57;;;;;;;14.20;7.30;;;;;;;-1.80;81.20;98257.57;104493;1268;97449;-68
2023/03/28 03:28:24;;;;;;;11.70;6.50;;;;;;;-1.80;80.94;98259.13;104573;1268;96664;-68
2023/03/28 03:30:52;;;;;;;12.50;7.70;;;;;;;-1.80;80.96;98263.48;104850;1261;97217;-68
2023/03/28 03:33:19;;;;;;;14.40;7.90;;;;;;;-1.81;81.00;98257.40;104851;1262;96541;-68
2023/03/28 03:35:46;;;;;;;15.50;8.80;;;;;;;-1.81;80.98;98255.61;104877;1261;96569;-68
2023/03/28 03:38:14;;;;;;;19.50;9.70;;;;;;;-1.81;81.05;98255.73;104834;1264;96550;-68
2023/03/28 03:40:41;;;;;;;21.70;10.00;;;;;;;-1.80;81.01;98248.91;104850;1261;96544;-69
2023/03/28 03:43:08;;;;;;;10.70;5.70;;;;;;;-1.81;81.04;98249.44;104756;1271;96535;-68
2023/03/28 03:45:36;;;;;;;16.90;8.40;;;;;;;-1.85;80.98;98250.02;104883;1262;96667;-68
2023/03/28 03:48:04;;;;;;;13.10;7.40;;;;;;;-1.87;80.91;98248.16;104865;1261;96569;-68
2023/03/28 03:50:31;;;;;;;13.70;7.60;;;;;;;-1.89;80.94;98247.21;104888;1262;96686;-68
2023/03/28 03:52:59;;;;;;;15.30;7.50;;;;;;;-1.91;81.17;98245.52;104785;1271;96556;-68
2023/03/28 03:55:26;;;;;;;15.00;8.30;;;;;;;-1.92;80.88;98246.69;104647;1266;98321;-68
2023/03/28 03:57:53;;;;;;;20.20;10.10;;;;;;;-1.91;81.08;98241.22;104775;1271;96646;-68
2023/03/28 04:00:20;;;;;;;23.70;14.10;;;;;;;-1.87;81.18;98247.09;104730;1265;96647;-68
2023/03/28 04:02:47;;;;;;;28.80;14.60;;;;;;;-1.83;81.37;98246.23;104589;1274;96655;-68
2023/03/28 04:05:15;;;;;;;30.60;14.00;;;;;;;-1.76;81.58;98244.15;104767;1262;96652;-68
2023/03/28 04:07:42;;;;;;;29.70;14.50;;;;;;;-1.71;81.40;98244.51;104833;1264;96552;-68
2023/03/28 04:10:09;;;;;;;25.30;11.90;;;;;;;-1.64;81.41;98248.98;104597;1266;96619;-68
2023/03/28 04:12:37;;;;;;;25.20;11.50;;;;;;;-1.55;81.22;98254.23;104666;1271;96555;-68
2023/03/28 04:15:05;;;;;;;16.40;7.40;;;;;;;-1.48;81.36;98256.00;104616;1262;96545;-67
2023/03/28 04:17:33;;;;;;;29.90;13.20;;;;;;;-1.42;81.06;98259.05;104590;1261;96967;-68
2023/03/28 04:20:12;;;;;;;39.50;16.90;;;;;;;-1.38;80.69;98260.95;104769;1262;97465;-68
2023/03/28 04:22:39;;;;;;;17.60;8.90;;;;;;;-1.36;80.69;98269.35;104576;1273;110932;-68
2023/03/28 04:25:12;;;;;;;21.90;9.90;;;;;;;-1.35;80.82;98265.92;104586;1262;98381;-68
2023/03/28 04:27:45;;;;;;;16.20;7.50;;;;;;;-1.37;80.57;98274.77;104525;1272;108458;-68
2023/03/28 04:30:16;;;;;;;21.50;11.70;;;;;;;-1.36;80.32;98275.53;104613;1268;96541;-68
2023/03/28 04:32:48;;;;;;;12.90;7.10;;;;;;;-1.37;80.63;98278.33;104632;1271;98137;-67
2023/03/28 04:35:15;;;;;;;13.60;7.00;;;;;;;-1.37;80.83;98276.76;104889;1269;110660;-67
2023/03/28 04:37:43;;;;;;;13.90;6.50;;;;;;;-1.39;81.26;98276.59;104877;1272;96585;-67
2023/03/28 04:40:10;;;;;;;14.20;7.10;;;;;;;-1.38;81.22;98271.52;104800;1264;96553;-68
2023/03/28 04:42:38;;;;;;;13.80;6.80;;;;;;;-1.39;81.80;98279.64;104839;1262;97715;-68
2023/03/28 04:45:07;;;;;;;13.00;6.20;;;;;;;-1.38;82.29;98278.64;104765;1265;96560;-68
2023/03/28 04:47:36;;;;;;;10.50;5.70;;;;;;;-1.39;83.78;98269.77;104911;1266;110366;-68
2023/03/28 04:50:05;;;;;;;9.70;5.00;;;;;;;-1.38;84.97;98264.91;104497;1279;99109;-67
2023/03/28 04:52:33;;;;;;;10.60;5.20;;;;;;;-1.38;85.60;98263.03;104842;1261;108725;-67
2023/03/28 04:55:00;;;;;;;9.50;5.40;;;;;;;-1.33;85.38;98263.97;104805;1271;96557;-68
2023/03/28 04:57:27;;;;;;;12.80;5.80;;;;;;;-1.31;86.20;98266.13;104816;1281;96559;-67
2023/03/28 04:59:54;;;;;;;8.30;4.10;;;;;;;-1.30;86.32;98266.76;104806;1273;96561;-67
2023/03/28 05:02:22;;;;;;;8.10;4.40;;;;;;;-1.24;86.04;98268.78;104877;1270;96564;-68
2023/03/28 05:04:49;;;;;;;9.10;4.70;;;;;;;-1.22;85.72;98277.96;104814;1262;98013;-68
2023/03/28 05:07:16;;;;;;;8.00;4.60;;;;;;;-1.19;85.81;98275.73;104826;1272;97208;-67
2023/03/28 05:09:44;;;;;;;7.50;4.20;;;;;;;-1.16;85.64;98276.71;104819;1261;96547;-67
2023/03/28 05:12:11;;;;;;;7.90;3.70;;;;;;;-1.12;86.05;98278.53;104890;1271;96569;-67
2023/03/28 05:14:39;;;;;;;6.60;3.20;;;;;;;-1.11;85.82;98276.52;104846;1271;96544;-68
2023/03/28 05:17:07;;;;;;;9.80;3.90;;;;;;;-1.10;86.04;98283.61;104726;1271;96624;-68
2023/03/28 05:19:34;;;;;;;7.80;4.20;;;;;;;-1.07;85.88;98279.91;104680;1264;96699;-68
2023/03/28 05:22:01;;;;;;;10.50;5.00;;;;;;;-1.05;85.60;98286.10;104875;1262;96563;-68
2023/03/28 05:24:28;;;;;;;14.10;7.40;;;;;;;-1.04;85.93;98285.65;104695;1264;96657;-68
2023/03/28 05:26:55;;;;;;;15.20;7.30;;;;;;;-1.02;86.16;98290.84;104861;1264;96638;-68
2023/03/28 05:29:22;;;;;;;12.80;7.90;;;;;;;-0.99;86.47;98293.25;104814;1263;97462;-68
2023/03/28 05:31:49;;;;;;;15.30;8.00;;;;;;;-0.92;86.51;98295.02;104821;1264;96640;-67
2023/03/28 05:34:16;;;;;;;11.20;6.50;;;;;;;-0.83;86.25;98292.98;104758;1272;97253;-68
2023/03/28 05:36:43;;;;;;;9.30;5.60;;;;;;;-0.77;86.39;98293.55;104665;1271;97095;-67
2023/03/28 05:39:10;;;;;;;9.70;5.00;;;;;;;-0.71;86.27;98284.55;104673;1273;107502;-68
2023/03/28 05:41:37;;;;;;;10.50;6.00;;;;;;;-0.65;85.92;98289.98;104505;1272;96619;-69
2023/03/28 05:44:04;;;;;;;11.90;5.50;;;;;;;-0.56;85.87;98290.07;104608;1258;96536;-69
2023/03/28 05:46:31;;;;;;;9.10;5.40;;;;;;;-0.50;85.58;98292.98;104577;1269;97870;-69
2023/03/28 05:48:58;;;;;;;11.40;6.20;;;;;;;-0.43;85.25;98300.34;104843;1273;97948;-68
2023/03/28 05:51:25;;;;;;;10.40;5.30;;;;;;;-0.33;85.29;98306.92;104873;1273;97164;-70
2023/03/28 05:53:53;;;;;;;9.10;5.40;;;;;;;-0.28;84.95;98307.14;104839;1262;96644;-68
2023/03/28 05:56:20;;;;;;;14.90;8.10;;;;;;;-0.22;84.93;98307.97;104927;1265;96593;-69
2023/03/28 05:58:48;;;;;;;8.20;4.80;;;;;;;-0.16;84.55;98311.11;104882;1271;96713;-70
2023/03/28 06:01:22;;;;;;;5.90;3.70;;;;;;;-0.15;83.95;98308.27;104900;1264;96564;-68
2023/03/28 06:03:49;;;;;;;6.90;3.90;;;;;;;-0.19;83.69;98305.10;104816;1261;108649;-70
2023/03/28 06:06:17;;;;;;;4.40;2.70;;;;;;;-0.24;83.55;98309.18;104569;1258;97559;-70
2023/03/28 06:08:44;;;;;;;8.20;3.70;;;;;;;-0.28;82.99;98300.43;104854;1264;96584;-68
2023/03/28 06:11:13;;;;;;;7.70;3.60;;;;;;;-0.28;82.93;98305.82;104616;1273;110937;-67
2023/03/28 06:13:40;;;;;;;6.10;3.10;;;;;;;-0.23;83.00;98301.18;104759;1263;98940;-69
2023/03/28 06:16:08;;;;;;;6.20;3.20;;;;;;;-0.22;82.77;98312.50;104669;1275;108405;-68
2023/03/28 06:18:35;;;;;;;8.00;3.40;;;;;;;-0.18;82.37;98314.31;104792;1261;96649;-70
2023/03/28 06:21:03;;;;;;;7.70;3.80;;;;;;;-0.11;82.09;98317.69;104691;1271;98205;-68
2023/03/28 06:23:31;;;;;;;7.00;4.00;;;;;;;-0.06;81.88;98319.73;104958;1272;111037;-69
2023/03/28 06:25:58;;;;;;;6.30;4.00;;;;;;;-0.02;81.58;98322.48;104938;1263;96497;-68
2023/03/28 06:28:25;;;;;;;5.60;3.20;;;;;;;0.02;81.60;98322.26;104824;1264;96536;-70
2023/03/28 06:30:53;;;;;;;4.50;2.50;;;;;;;0.05;81.35;98327.02;104853;1271;96858;-70
2023/03/28 06:33:20;;;;;;;7.60;3.20;;;;;;;0.05;81.61;98331.48;104953;1263;96530;-68
2023/03/28 06:35:48;;;;;;;7.50;3.70;;;;;;;0.06;81.74;98335.71;104870;1265;109867;-69
2023/03/28 06:38:15;;;;;;;4.10;2.70;;;;;;;0.05;81.48;98342.86;104660;1269;96568;-68
2023/03/28 06:40:42;;;;;;;10.00;3.20;;;;;;;-0.02;80.81;98344.58;104845;1264;96576;-68
2023/03/28 06:43:09;;;;;;;5.10;2.10;;;;;;;-0.04;80.79;98350.09;104731;1263;96620;-68
2023/03/28 06:45:37;;;;;;;6.30;2.50;;;;;;;0.00;80.70;98349.49;104617;1264;96768;-68
2023/03/28 06:48:05;;;;;;;4.30;2.40;;;;;;;0.03;81.15;98360.20;104790;1264;97047;-68
2023/03/28 06:50:32;;;;;;;4.10;2.20;;;;;;;-0.08;83.26;98391.48;104725;1271;96613;-68
2023/03/28 06:52:59;;;;;;;3.90;1.60;;;;;;;-0.27;85.08;98402.70;104800;1269;97855;-68
2023/03/28 06:55:27;;;;;;;3.30;1.60;;;;;;;-0.60;84.40;98406.75;104577;1257;96647;-68
2023/03/28 06:57:54;;;;;;;4.20;2.00;;;;;;;-0.81;84.77;98414.90;104854;1258;96562;-69
2023/03/28 07:00:22;;;;;;;2.50;1.30;;;;;;;-0.96;85.47;98425.86;104768;1271;96623;-67
2023/03/28 07:02:49;;;;;;;1.90;1.20;;;;;;;-1.18;86.21;98421.50;104477;1274;96751;-69
2023/03/28 07:05:17;;;;;;;3.40;1.30;;;;;;;-1.27;86.77;98416.94;104700;1272;96717;-67
2023/03/28 07:07:44;;;;;;;2.40;1.10;;;;;;;-1.29;86.95;98422.02;104696;1263;96691;-68
2023/03/28 07:10:11;;;;;;;5.30;1.70;;;;;;;-1.23;87.16;98425.45;104779;1262;96550;-68
2023/03/28 07:12:38;;;;;;;3.00;1.70;;;;;;;-1.13;87.38;98426.42;104708;1271;96609;-68
2023/03/28 07:15:06;;;;;;;3.20;1.80;;;;;;;-1.05;87.13;98428.05;104831;1272;96556;-68
2023/03/28 07:17:33;;;;;;;1.80;0.90;;;;;;;-0.97;86.92;98435.52;104809;1271;97165;-67
2023/03/28 07:20:00;;;;;;;2.70;1.60;;;;;;;-0.86;86.90;98434.04;104822;1264;96895;-68
2023/03/28 07:22:27;;;;;;;3.20;1.40;;;;;;;-0.72;86.65;98438.02;104908;1262;96648;-67
2023/03/28 07:24:54;;;;;;;3.30;1.60;;;;;;;-0.59;86.28;98439.89;104904;1264;96999;-68
2023/03/28 07:27:22;;;;;;;3.10;2.20;;;;;;;-0.38;86.26;98442.24;104791;1264;96578;-69
2023/03/28 07:29:50;;;;;;;3.40;2.20;;;;;;;-0.13;86.33;98444.59;104636;1271;96646;-66
2023/03/28 07:32:17;;;;;;;2.90;2.00;;;;;;;0.12;86.00;98448.40;104738;1263;96590;-66
2023/03/28 07:34:45;;;;;;;4.40;2.70;;;;;;;0.30;84.52;98447.86;104907;1261;98437;-65
2023/03/28 07:37:13;;;;;;;5.90;3.40;;;;;;;0.38;83.26;98453.68;104852;1264;96562;-67
2023/03/28 07:39:42;;;;;;;5.20;3.80;;;;;;;0.51;83.26;98454.53;104860;1263;96566;-67
2023/03/28 07:42:10;;;;;;;5.70;3.20;;;;;;;0.66;82.73;98458.85;104567;1269;107896;-66
2023/03/28 07:44:38;;;;;;;2.70;2.00;;;;;;;0.88;82.47;98467.98;104578;1261;97999;-66
2023/03/28 07:47:08;;;;;;;2.50;1.90;;;;;;;1.03;80.14;98468.83;104785;1264;96557;-65
2023/03/28 07:49:35;;;;;;;8.20;2.10;;;;;;;1.07;79.37;98466.00;104883;1264;110825;-66
2023/03/28 07:52:04;;;;;;;4.20;2.20;;;;;;;1.19;79.29;98470.38;104838;1262;96533;-65
2023/03/28 07:54:32;;;;;;;4.20;2.00;;;;;;;1.28;78.15;98475.64;104796;1273;108230;-65
2023/03/28 07:57:00;;;;;;;4.00;2.30;;;;;;;1.36;77.52;98476.67;104739;1263;96622;-65
2023/03/28 07:59:27;;;;;;;2.50;1.40;;;;;;;1.54;77.26;98482.44;104573;1267;96739;-64
2023/03/28 08:01:55;;;;;;;3.60;1.70;;;;;;;1.61;76.41;98487.73;104569;1258;96565;-65
2023/03/28 08:04:23;;;;;;;2.30;1.50;;;;;;;1.77;74.82;98493.56;104827;1264;99045;-65
2023/03/28 08:06:51;;;;;;;2.80;1.60;;;;;;;1.73;73.03;98494.66;104581;1264;108821;-65
2023/03/28 08:09:20;;;;;;;2.50;1.50;;;;;;;1.86;73.95;98494.33;104686;1271;96553;-64
2023/03/28 08:11:47;;;;;;;1.80;1.40;;;;;;;2.11;73.88;98493.39;104605;1269;96628;-65
2023/03/28 08:14:17;;;;;;;2.60;1.90;;;;;;;2.37;73.57;98496.29;104907;1271;110885;-64
2023/03/28 08:16:45;;;;;;;3.30;1.70;;;;;;;2.47;71.00;98499.73;104593;1262;99205;-66
2023/03/28 08:19:12;;;;;;;3.60;2.60;;;;;;;2.39;70.87;98507.48;104639;1261;107641;-66
2023/03/28 08:21:40;;;;;;;2.70;1.90;;;;;;;2.43;71.32;98514.05;104699;1264;97455;-65
2023/03/28 08:24:10;;;;;;;4.10;1.90;;;;;;;2.45;71.57;98520.33;104607;1265;97833;-69
2023/03/28 08:26:48;;;;;;;4.00;2.60;;;;;;;2.28;70.55;98523.77;104482;1261;110877;-68
2023/03/28 08:29:16;;;;;;;2.60;1.70;;;;;;;2.08;71.66;98535.06;104655;1267;98386;-65
2023/03/28 08:31:44;;;;;;;4.20;1.90;;;;;;;1.96;72.12;98538.70;104688;1262;96546;-67
2023/03/28 08:34:11;;;;;;;3.50;2.10;;;;;;;1.84;72.26;98542.85;104509;1257;96627;-65
2023/03/28 08:36:40;;;;;;;3.80;1.80;;;;;;;1.76;72.36;98546.14;104660;1281;96541;-64
2023/03/28 08:39:07;;;;;;;2.40;1.90;;;;;;;1.79;72.58;98546.21;104575;1266;109924;-68
2023/03/28 08:42:19;;;;;;;3.20;2.00;;;;;;;1.92;73.53;98546.58;104525;1257;96550;-65
2023/03/28 08:45:23;;;;;;;2.60;1.80;;;;;;;2.18;73.09;98545.49;104180;1267;108221;-68
2023/03/28 08:48:15;;;;;;;1.80;1.40;;;;;;;2.68;73.44;98551.11;104387;1267;96607;-66
2023/03/28 08:50:52;;;;;;;4.50;2.10;;;;;;;3.29;70.99;98547.84;104463;1267;97753;-66
2023/03/28 08:53:29;;;;;;;3.50;2.10;;;;;;;3.68;69.37;98548.30;104503;1268;110931;-67
2023/03/28 08:55:58;;;;;;;2.70;1.90;;;;;;;4.00;69.11;98552.48;104345;1266;98299;-68
2023/03/28 08:58:33;;;;;;;2.30;1.40;;;;;;;3.97;67.49;98560.12;104379;1275;108582;-69
2023/03/28 09:01:02;;;;;;;2.90;1.70;;;;;;;3.52;67.49;98567.42;104474;1267;96723;-67
2023/03/28 09:03:34;;;;;;;3.20;2.00;;;;;;;3.04;67.65;98571.01;104598;1268;96558;-72
2023/03/28 09:06:19;;;;;;;3.10;1.70;;;;;;;2.71;69.70;98574.78;104484;1281;110128;-71
2023/03/28 09:08:51;;;;;;;3.40;2.10;;;;;;;2.63;71.89;98578.22;104425;1269;99519;-68
2023/03/28 09:11:25;;;;;;;4.50;2.60;;;;;;;2.72;72.63;98579.92;104422;1277;106811;-69
2023/03/28 09:14:26;;;;;;;3.10;2.20;;;;;;;2.79;73.36;98583.70;104504;1267;96564;-69
2023/03/28 09:17:01;;;;;;;4.60;2.40;;;;;;;2.91;73.22;98594.79;104469;1274;96623;-68
2023/03/28 09:20:12;;;;;;;4.40;2.70;;;;;;;2.88;72.99;98596.56;104560;1267;111044;-68
2023/03/28 09:23:35;;;;;;;2.80;1.80;;;;;;;2.74;73.80;98604.67;104611;1259;98284;-69
2023/03/28 09:26:17;;;;;;;5.20;3.00;;;;;;;2.53;73.98;98618.91;104591;1262;108392;-68
2023/03/28 09:28:56;;;;;;;5.60;3.20;;;;;;;2.07;74.70;98622.30;104698;1261;97351;-67
2023/03/28 09:31:31;;;;;;;4.20;2.90;;;;;;;1.59;75.62;98619.95;104679;1267;96654;-67
2023/03/28 09:34:01;;;;;;;9.10;3.20;;;;;;;1.34;77.63;98622.02;104396;1266;109990;-65
2023/03/28 09:36:36;;;;;;;5.70;3.10;;;;;;;1.40;78.08;98624.51;104587;1261;99135;-66
2023/03/28 09:39:25;;;;;;;5.60;3.60;;;;;;;1.64;77.98;98631.14;104412;1257;108833;-67
2023/03/28 09:42:04;;;;;;;3.90;2.80;;;;;;;1.86;77.53;98632.42;104618;1264;96545;-67
2023/03/28 09:44:43;;;;;;;3.20;2.10;;;;;;;1.87;75.99;98650.27;104772;1258;96483;-71
2023/03/28 09:47:21;;;;;;;3.60;2.20;;;;;;;1.57;74.90;98654.52;104538;1261;110635;-76
2023/03/28 09:49:49;;;;;;;5.00;2.10;;;;;;;1.42;75.56;98651.98;104886;1264;97452;-68
2023/03/28 09:52:25;;;;;;;3.10;1.70;;;;;;;1.42;75.80;98644.90;104648;1264;108317;-68
2023/03/28 09:54:52;;;;;;;3.40;1.80;;;;;;;1.40;74.73;98650.76;104866;1261;97046;-68
2023/03/28 09:57:20;;;;;;;5.10;2.10;;;;;;;1.35;74.66;98644.45;104715;1261;96562;-68
2023/03/28 09:59:48;;;;;;;3.50;2.10;;;;;;;1.42;74.57;98644.52;104435;1259;109928;-67
2023/03/28 10:02:33;;;;;;;4.40;2.50;;;;;;;1.54;75.92;98638.27;104858;1262;99437;-68
2023/03/28 10:05:00;;;;;;;2.70;1.50;;;;;;;1.97;75.63;98640.30;104680;1264;108659;-68
2023/03/28 10:07:32;;;;;;;3.00;2.00;;;;;;;2.56;74.39;98645.65;104618;1263;96676;-67
2023/03/28 10:10:18;;;;;;;1.90;1.60;;;;;;;3.12;72.78;98638.73;104896;1261;96827;-69
2023/03/28 10:12:48;;;;;;;2.00;1.30;;;;;;;3.84;71.45;98641.55;104549;1264;110999;-69
2023/03/28 10:15:32;;;;;;;3.30;1.90;;;;;;;4.36;68.63;98648.41;104834;1274;99406;-69
2023/03/28 10:18:02;;;;;;;3.50;1.60;;;;;;;4.90;66.37;98658.02;104898;1261;108521;-68
2023/03/28 10:20:36;;;;;;;6.20;2.00;;;;;;;4.99;64.76;98663.59;104694;1261;96646;-70
2023/03/28 10:23:04;;;;;;;2.30;1.50;;;;;;;4.64;66.54;98670.56;104896;1272;96490;-68
2023/03/28 10:25:34;;;;;;;2.50;1.70;;;;;;;4.34;68.50;98674.61;104860;1261;109517;-69
2023/03/28 10:28:05;;;;;;;2.50;1.80;;;;;;;4.14;69.58;98674.72;104876;1258;99118;-69
2023/03/28 10:30:35;;;;;;;3.50;2.30;;;;;;;4.08;70.11;98679.16;104906;1262;108439;-69
2023/03/28 10:33:19;;;;;;;5.30;1.70;;;;;;;4.06;70.64;98675.16;104927;1271;96570;-68
2023/03/28 10:36:02;;;;;;;2.00;1.60;;;;;;;4.18;69.37;98681.23;104873;1263;97915;-68
2023/03/28 10:38:47;;;;;;;5.40;2.50;;;;;;;4.19;71.65;98674.94;104811;1274;110905;-68
2023/03/28 10:41:24;;;;;;;6.10;2.70;;;;;;;4.73;73.07;98669.41;104713;1273;99216;-67
2023/03/28 10:43:52;;;;;;;4.10;2.10;;;;;;;5.25;69.86;98665.52;104622;1271;108216;-66
2023/03/28 10:46:35;;;;;;;2.80;1.70;;;;;;;5.88;69.17;98663.88;104867;1273;97877;-68
2023/03/28 10:49:11;;;;;;;2.20;1.60;;;;;;;6.09;63.91;98673.09;104645;1258;97392;-67
2023/03/28 10:51:40;;;;;;;3.10;2.00;;;;;;;5.67;60.91;98670.67;104638;1263;110434;-67
2023/03/28 10:54:10;;;;;;;2.70;1.80;;;;;;;5.22;62.11;98678.45;104545;1272;98933;-68
2023/03/28 10:56:51;;;;;;;2.80;1.80;;;;;;;4.84;62.15;98677.52;104620;1265;107522;-69
2023/03/28 10:59:24;;;;;;;4.10;2.50;;;;;;;4.50;63.40;98682.05;104731;1257;97858;-69
2023/03/28 11:02:29;;;;;;;4.20;2.30;;;;;;;4.42;64.33;98678.79;104751;1264;97182;-67
2023/03/28 11:05:12;;;;;;;3.80;2.70;;;;;;;4.78;65.49;98679.77;104875;1264;110896;-71
2023/03/28 11:08:08;;;;;;;4.30;2.60;;;;;;;4.73;64.02;98678.20;104523;1262;99046;-69
2023/03/28 11:11:03;;;;;;;6.10;3.20;;;;;;;4.49;65.64;98680.14;104823;1262;108259;-70
2023/03/28 11:13:50;;;;;;;5.10;2.80;;;;;;;4.28;67.71;98683.46;104860;1262;96568;-70
2023/03/28 11:16:40;;;;;;;3.40;2.20;;;;;;;4.44;68.03;98676.13;104922;1261;96525;-69
2023/03/28 11:19:26;;;;;;;2.90;2.00;;;;;;;4.69;65.94;98671.42;104796;1258;110570;-69
2023/03/28 11:22:13;;;;;;;3.10;1.80;;;;;;;5.12;65.38;98672.13;104961;1258;98584;-69
2023/03/28 11:24:43;;;;;;;2.60;1.60;;;;;;;5.82;64.64;98671.90;104846;1261;108465;-69
2023/03/28 11:27:27;;;;;;;2.30;1.60;;;;;;;6.45;60.41;98669.08;104815;1273;96549;-69
2023/03/28 11:30:10;;;;;;;2.30;1.50;;;;;;;6.40;59.12;98672.10;104830;1257;96483;-69
2023/03/28 11:32:47;;;;;;;2.60;1.60;;;;;;;6.08;58.17;98665.91;104702;1272;111304;-69
2023/03/28 11:35:26;;;;;;;5.80;3.00;;;;;;;5.63;57.56;98673.86;104886;1262;98712;-69
2023/03/28 11:38:32;;;;;;;11.20;4.10;;;;;;;4.73;59.84;98691.98;104821;1262;108163;-70
2023/03/28 11:41:14;;;;;;;5.10;2.50;;;;;;;3.71;64.52;98727.52;104677;1257;97487;-69
2023/03/28 11:44:20;;;;;;;4.40;2.00;;;;;;;2.99;68.13;98740.04;104690;1262;96541;-70
2023/03/28 11:46:58;;;;;;;5.00;2.40;;;;;;;2.44;70.75;98740.67;104391;1268;110475;-69
2023/03/28 11:49:36;;;;;;;4.20;2.70;;;;;;;2.09;72.28;98736.14;104505;1267;99302;-68
2023/03/28 11:52:27;;;;;;;4.80;3.30;;;;;;;1.95;73.53;98728.88;104455;1277;110383;-69